createdAt,value
2022-09-23T00:04:10.486Z,6.27
2022-09-23T00:19:06.628Z,6.22
2022-09-23T00:34:02.814Z,6.39
2022-09-23T00:48:58.611Z,6.9
2022-09-23T01:03:54.496Z,6.93
2022-09-23T01:18:50.531Z,7.06
2022-09-23T01:33:46.871Z,7.05
2022-09-23T01:48:43.055Z,7.25
2022-09-23T02:03:39.601Z,7.15
2022-09-23T02:18:35.550Z,6.89
2022-09-23T02:33:31.573Z,6.76
2022-09-23T02:48:28.236Z,6.67
2022-09-23T03:03:24.111Z,6.59
2022-09-23T03:18:20.093Z,6.47
2022-09-23T03:33:16.460Z,6.51
2022-09-23T03:48:12.664Z,6.49
2022-09-23T04:03:11.528Z,6.33
2022-09-23T04:33:00.256Z,6.36
2022-09-23T04:47:55.946Z,6.1
2022-09-23T05:02:52.053Z,5.94
2022-09-23T05:17:47.832Z,6.01
2022-09-23T05:32:43.986Z,6.2
2022-09-23T05:47:40.666Z,6.13
2022-09-23T06:02:37.213Z,6.21
2022-09-23T06:17:33.296Z,6.56
2022-09-23T06:32:29.303Z,6.93
2022-09-23T06:47:25.608Z,7.42
2022-09-23T07:02:22.390Z,8.24
2022-09-23T07:17:18.788Z,9.15
2022-09-23T07:32:15.691Z,9.61
2022-09-23T07:47:11.514Z,10.06
2022-09-23T08:02:07.815Z,10.85
2022-09-23T08:17:04.374Z,11.62
2022-09-23T08:32:01.256Z,12.54
2022-09-23T08:46:58.482Z,14.12
2022-09-23T09:01:55.686Z,14.47
2022-09-23T09:17:00.527Z,14.82
2022-09-23T09:31:49.343Z,15
2022-09-23T09:46:46.213Z,15.32
2022-09-23T10:01:41.952Z,15.89
2022-09-23T10:16:38.688Z,16.16
2022-09-23T10:31:35.587Z,17.62
2022-09-23T10:46:32.173Z,17.67
2022-09-23T11:01:29.292Z,18.21
2022-09-23T11:16:26.213Z,18.03
2022-09-23T11:31:23.092Z,18.44
2022-09-23T11:46:19.396Z,18.28
2022-09-23T12:01:16.261Z,18.66
2022-09-23T12:16:12.976Z,18.97
2022-09-23T12:31:09.575Z,20.33
2022-09-23T12:46:06.055Z,19.61
2022-09-23T13:01:01.543Z,19.27
2022-09-23T13:15:57.298Z,19.22
2022-09-23T13:30:53.161Z,19.1
2022-09-23T13:45:49.180Z,18.97
2022-09-23T14:00:44.939Z,18.87
2022-09-23T14:15:40.565Z,18.8
2022-09-23T14:30:36.598Z,18.57
2022-09-23T14:45:32.227Z,18.31
2022-09-23T15:00:28.325Z,18.17
2022-09-23T15:15:24.047Z,18.01
2022-09-23T15:30:19.973Z,17.76
2022-09-23T15:45:15.842Z,17.65
2022-09-23T16:00:12.476Z,17.33
2022-09-23T16:15:07.969Z,16.87
2022-09-23T16:30:03.690Z,16.41
2022-09-23T16:44:59.520Z,16
2022-09-23T16:59:55.104Z,15.77
2022-09-23T17:14:50.456Z,15.16
2022-09-23T17:29:46.596Z,14.64
2022-09-23T17:44:42.481Z,14.21
2022-09-23T17:59:38.574Z,13.76
2022-09-23T18:14:34.725Z,13.44
2022-09-23T18:29:30.091Z,13.11
2022-09-23T18:44:26.138Z,13.05
2022-09-23T18:59:22.635Z,12.79
2022-09-23T19:14:18.889Z,12.47
2022-09-23T19:29:15.390Z,12.34
2022-09-23T19:44:11.079Z,12.02
2022-09-23T19:59:07.196Z,11.71
2022-09-23T20:14:03.329Z,11.49
2022-09-23T20:28:59.347Z,11.27
2022-09-23T20:43:55.439Z,11.07
2022-09-23T20:58:51.325Z,11.19
2022-09-23T22:13:32.376Z,10.12
2022-09-23T22:28:28.546Z,10.01
2022-09-23T22:43:24.621Z,9.69
2022-09-23T22:58:31.512Z,9.62
2022-09-23T23:13:17.204Z,10.14
2022-09-23T23:28:13.604Z,10.22
2022-09-23T23:43:09.357Z,9.82
2022-09-23T23:58:05.916Z,9.52
